Time;durP1;ratioP1;P1;durP2;ratioP2;P2;SDS_P1;SDS_P2;PMS_P1;PMS_P2;Temp;Humidity;BMP_temperature;BMP_pressure;BME280_temperature;BME280_humidity;BME280_pressure;Samples;Min_cycle;Max_cycle;Signal;HPM_P1;HPM_P2
2022/06/13 00:01:09;;;;;;;4.15;2.95;;;;;;;20.78;83.17;98910.84;5036402;27;102936;-68
2022/06/13 00:03:38;;;;;;;3.55;2.65;;;;;;;21.02;82.64;98892.00;5022468;27;104175;-68
2022/06/13 00:06:06;;;;;;;2.50;2.13;;;;;;;20.68;85.21;98869.94;5037686;27;103215;-68
2022/06/13 00:08:34;;;;;;;4.00;2.30;;;;;;;21.23;82.41;98857.38;5034361;27;102793;-68
2022/06/13 00:11:03;;;;;;;5.07;3.00;;;;;;;21.29;81.24;98845.94;5036768;27;103151;-69
2022/06/13 00:13:33;;;;;;;2.10;1.90;;;;;;;21.53;80.41;98853.00;5034661;27;103756;-68
2022/06/13 00:16:03;;;;;;;2.80;2.10;;;;;;;21.60;80.53;98858.53;5034435;27;103474;-68
2022/06/13 00:18:31;;;;;;;2.27;2.00;;;;;;;21.71;79.83;98872.41;5024393;27;103034;-69
2022/06/13 00:21:01;;;;;;;3.03;2.23;;;;;;;21.74;79.65;98861.31;5034568;27;102760;-67
2022/06/13 00:23:29;;;;;;;2.35;2.00;;;;;;;21.80;79.94;98859.75;5040305;27;103556;-69
2022/06/13 00:25:57;;;;;;;2.58;2.22;;;;;;;21.82;80.37;98863.09;5033812;27;103182;-67
2022/06/13 00:28:25;;;;;;;2.03;1.83;;;;;;;21.83;80.08;98854.03;5033111;27;102710;-68
2022/06/13 00:30:53;;;;;;;2.63;2.20;;;;;;;21.78;80.83;98851.03;5032529;27;102649;-68
2022/06/13 00:33:22;;;;;;;2.47;1.95;;;;;;;21.73;81.01;98850.72;5023761;27;103262;-68
2022/06/13 00:35:50;;;;;;;2.70;2.20;;;;;;;21.82;80.04;98852.34;5035932;27;103267;-68
2022/06/13 00:38:18;;;;;;;3.00;1.95;;;;;;;21.84;79.28;98847.63;5036305;27;102606;-68
2022/06/13 00:40:46;;;;;;;3.60;2.00;;;;;;;21.86;79.30;98859.06;5025341;27;103046;-68
2022/06/13 00:43:15;;;;;;;2.20;1.52;;;;;;;21.91;78.59;98845.94;5032590;27;104757;-68
2022/06/13 00:45:43;;;;;;;3.17;2.17;;;;;;;21.87;79.59;98839.22;5032524;27;103232;-68
2022/06/13 00:48:13;;;;;;;3.30;2.20;;;;;;;21.84;79.77;98828.78;5036963;27;103102;-68
2022/06/13 00:50:47;;;;;;;2.90;2.30;;;;;;;21.59;79.97;98843.41;5025082;27;103048;-67
2022/06/13 00:53:20;;;;;;;3.08;2.47;;;;;;;21.48;81.00;98843.81;5036710;27;103994;-68
2022/06/13 00:55:52;;;;;;;3.00;2.10;;;;;;;21.51;81.34;98832.69;5020424;27;104133;-69
2022/06/13 00:58:21;;;;;;;3.07;2.53;;;;;;;21.36;82.02;98822.69;5029273;27;102855;-69
2022/06/13 01:00:53;;;;;;;2.17;1.90;;;;;;;21.50;81.81;98820.28;5034026;27;104137;-68
2022/06/13 01:03:22;;;;;;;3.45;2.60;;;;;;;21.52;81.82;98820.94;5032853;27;104188;-68
2022/06/13 01:05:53;;;;;;;2.57;2.20;;;;;;;21.41;81.83;98829.41;5036930;27;103013;-68
2022/06/13 01:08:25;;;;;;;3.20;2.50;;;;;;;21.60;80.79;98826.28;5033283;27;102760;-68
2022/06/13 01:14:18;;;;;;;1.95;1.70;;;;;;;21.64;79.61;98822.22;5039708;27;103368;-68
2022/06/13 01:17:02;;;;;;;2.65;2.30;;;;;;;21.30;80.05;98819.91;5035991;27;103170;-69
2022/06/13 01:20:08;;;;;;;3.58;3.13;;;;;;;20.42;86.36;98829.03;5034958;27;102735;-68
2022/06/13 01:23:27;;;;;;;4.70;2.60;;;;;;;20.83;84.63;98832.47;5029136;27;103795;-68
2022/06/13 01:26:15;;;;;;;2.47;2.28;;;;;;;21.12;82.58;98827.34;5035043;27;103383;-68
2022/06/13 01:29:04;;;;;;;1.77;1.50;;;;;;;21.36;80.70;98825.38;5028840;27;103966;-68
2022/06/13 01:31:42;;;;;;;2.07;1.60;;;;;;;21.50;80.66;98825.66;5036734;27;102776;-68
2022/06/13 01:34:19;;;;;;;2.80;2.40;;;;;;;21.07;83.20;98827.00;5030774;27;103776;-68
2022/06/13 01:37:00;;;;;;;1.70;1.60;;;;;;;21.31;82.27;98824.25;5032925;27;103696;-68
2022/06/13 01:39:41;;;;;;;2.65;2.40;;;;;;;21.37;81.59;98818.16;5034225;27;103205;-68
2022/06/13 01:42:18;;;;;;;2.20;2.00;;;;;;;21.41;80.78;98815.97;5030246;27;102844;-67
2022/06/13 01:44:59;;;;;;;2.37;2.17;;;;;;;21.35;80.70;98804.91;5032287;27;104710;-68
2022/06/13 01:47:35;;;;;;;2.35;2.15;;;;;;;21.19;82.02;98807.66;5034152;27;103283;-68
2022/06/13 01:50:19;;;;;;;1.90;1.73;;;;;;;21.16;81.87;98812.56;5030603;27;103286;-68
2022/06/13 01:52:56;;;;;;;2.05;1.90;;;;;;;21.24;80.55;98818.75;5036465;27;102665;-68
2022/06/13 01:55:39;;;;;;;2.47;2.05;;;;;;;21.27;80.79;98815.72;5030186;27;102954;-60
2022/06/13 01:58:14;;;;;;;3.40;2.60;;;;;;;21.09;81.40;98822.34;5028703;27;103325;-59
2022/06/13 02:00:47;;;;;;;2.60;2.33;;;;;;;21.03;81.08;98818.47;5021386;27;103488;-60
2022/06/13 02:03:26;;;;;;;2.22;2.03;;;;;;;21.15;81.01;98832.38;5026122;27;102769;-59
2022/06/13 02:06:01;;;;;;;2.10;1.80;;;;;;;21.14;80.89;98826.16;5025805;27;103503;-60
2022/06/13 02:08:36;;;;;;;1.75;1.65;;;;;;;21.28;80.37;98835.34;5032090;27;104098;-59
2022/06/13 02:11:09;;;;;;;4.68;2.47;;;;;;;21.23;80.21;98835.88;5032406;27;103208;-59
2022/06/13 02:13:42;;;;;;;3.37;2.60;;;;;;;20.94;80.41;98842.84;5029713;27;102609;-59
2022/06/13 02:16:15;;;;;;;3.25;2.45;;;;;;;20.78;81.34;98843.72;5029030;27;103700;-59
2022/06/13 02:18:52;;;;;;;2.83;2.40;;;;;;;20.54;82.05;98847.31;5035183;27;103376;-59
2022/06/13 02:21:24;;;;;;;3.35;2.25;;;;;;;20.60;81.64;98848.47;5032440;27;103212;-59
2022/06/13 02:23:56;;;;;;;3.55;2.60;;;;;;;20.67;81.36;98844.94;5033464;27;102753;-59
2022/06/13 02:26:31;;;;;;;2.87;2.30;;;;;;;20.35;81.69;98836.91;5029566;27;102841;-59
2022/06/13 02:29:05;;;;;;;2.30;2.10;;;;;;;20.41;81.69;98840.75;5032244;27;103282;-58
2022/06/13 02:31:38;;;;;;;2.50;2.30;;;;;;;20.23;82.30;98840.94;5030636;27;103216;-59
2022/06/13 02:34:14;;;;;;;2.67;2.15;;;;;;;20.02;83.25;98837.91;5035717;27;102653;-60
2022/06/13 02:36:48;;;;;;;2.92;2.40;;;;;;;20.09;81.28;98831.72;5029543;27;102733;-59
2022/06/13 02:39:22;;;;;;;4.27;2.50;;;;;;;19.96;81.30;98834.03;5026065;27;103332;-59
2022/06/13 02:42:01;;;;;;;2.50;1.90;;;;;;;19.92;80.04;98831.88;5032125;27;103228;-59
2022/06/13 02:44:36;;;;;;;4.05;2.40;;;;;;;19.84;80.85;98830.03;5034170;27;102897;-59
2022/06/13 02:47:10;;;;;;;2.20;1.80;;;;;;;20.20;80.39;98820.66;5025348;27;102658;-59
2022/06/13 02:49:43;;;;;;;2.77;2.27;;;;;;;19.99;80.26;98833.69;5026028;27;103428;-58
2022/06/13 02:52:19;;;;;;;3.80;2.30;;;;;;;19.89;80.07;98830.34;5025600;27;103560;-59
2022/06/13 02:54:50;;;;;;;2.40;2.00;;;;;;;20.11;79.19;98847.63;5028550;27;102966;-59
2022/06/13 02:57:41;;;;;;;3.97;2.30;;;;;;;19.78;78.02;98837.88;5033866;27;103535;-59
2022/06/13 03:00:18;;;;;;;5.05;2.20;;;;;;;19.32;79.30;98834.72;5034587;27;104311;-59
2022/06/13 03:02:55;;;;;;;4.55;2.05;;;;;;;19.74;77.52;98834.69;5030875;27;103161;-59
2022/06/13 03:05:41;;;;;;;2.45;1.85;;;;;;;19.66;78.54;98843.56;5029650;27;102519;-68
2022/06/13 03:08:24;;;;;;;2.20;1.70;;;;;;;19.97;76.19;98849.13;5020499;27;103931;-68
2022/06/13 03:11:02;;;;;;;3.23;2.00;;;;;;;20.00;75.03;98846.13;5032094;27;103939;-68
2022/06/13 03:13:38;;;;;;;3.83;2.20;;;;;;;19.72;75.33;98852.78;5028756;27;103717;-68
2022/06/13 03:16:12;;;;;;;3.45;2.00;;;;;;;19.92;75.49;98848.78;5030289;27;102908;-68
2022/06/13 03:18:47;;;;;;;3.93;2.40;;;;;;;19.78;74.93;98849.44;5029087;27;102817;-68
2022/06/13 03:21:24;;;;;;;2.20;1.73;;;;;;;19.66;75.13;98848.06;5025269;27;103335;-68
2022/06/13 03:23:56;;;;;;;3.20;1.70;;;;;;;19.64;75.16;98847.41;5030524;27;103186;-68
2022/06/13 03:26:32;;;;;;;1.90;1.60;;;;;;;19.76;74.65;98855.97;5030891;27;102684;-68
2022/06/13 03:29:05;;;;;;;3.45;2.05;;;;;;;19.74;75.32;98850.75;5034874;27;102943;-68
2022/06/13 03:31:38;;;;;;;3.63;2.17;;;;;;;19.61;74.81;98845.91;5032976;27;104019;-68
2022/06/13 03:34:11;;;;;;;4.00;2.30;;;;;;;19.60;74.98;98848.72;5023338;27;103389;-68
2022/06/13 03:36:44;;;;;;;3.55;2.13;;;;;;;19.56;75.28;98850.06;5042769;27;102636;-68
2022/06/13 03:39:18;;;;;;;3.30;2.38;;;;;;;19.44;74.08;98849.53;5033574;27;103005;-68
2022/06/13 03:41:51;;;;;;;5.55;2.42;;;;;;;19.28;74.83;98856.66;5023840;27;104586;-68
2022/06/13 03:44:25;;;;;;;4.20;2.40;;;;;;;19.15;75.23;98861.59;5031735;27;103207;-69
2022/06/13 03:46:57;;;;;;;5.40;2.83;;;;;;;18.82;75.06;98864.13;5037246;27;102747;-69
2022/06/13 03:49:31;;;;;;;5.35;2.85;;;;;;;19.07;74.31;98862.41;5024905;27;103939;-68
2022/06/13 03:52:02;;;;;;;5.70;3.00;;;;;;;18.86;74.60;98870.81;5011410;27;103255;-69
2022/06/13 03:54:35;;;;;;;5.53;2.60;;;;;;;18.84;73.71;98867.47;5036971;27;104150;-68
2022/06/13 03:57:10;;;;;;;4.85;2.70;;;;;;;18.88;73.58;98868.84;5034883;27;103695;-68
2022/06/13 03:59:46;;;;;;;4.00;2.10;;;;;;;18.98;73.29;98864.22;5033501;27;103714;-69
2022/06/13 04:02:17;;;;;;;5.30;2.45;;;;;;;19.14;72.37;98862.63;5032635;27;103059;-68
2022/06/13 04:04:48;;;;;;;4.20;2.28;;;;;;;19.11;72.63;98867.28;5025750;27;103952;-69
2022/06/13 04:07:19;;;;;;;3.45;2.20;;;;;;;18.96;72.26;98860.84;5034956;27;102843;-68
2022/06/13 04:09:52;;;;;;;5.70;3.03;;;;;;;18.73;71.83;98870.41;5031253;27;103013;-69
2022/06/13 04:12:41;;;;;;;5.20;2.60;;;;;;;18.58;72.42;98865.81;5035077;27;103289;-60
2022/06/13 04:15:36;;;;;;;5.00;2.35;;;;;;;18.82;71.88;98872.16;5052387;27;104067;-59
2022/06/13 04:18:12;;;;;;;5.30;2.63;;;;;;;18.72;71.66;98874.13;5030048;27;103472;-58
2022/06/13 04:20:50;;;;;;;6.35;2.65;;;;;;;18.27;73.10;98868.06;5022031;27;104624;-58
2022/06/13 04:23:23;;;;;;;5.57;3.05;;;;;;;18.08;74.26;98869.06;5034016;27;103270;-58
2022/06/13 04:26:01;;;;;;;8.27;3.20;;;;;;;18.12;73.75;98880.31;5023217;27;103052;-58
2022/06/13 04:28:36;;;;;;;5.28;2.90;;;;;;;18.48;72.38;98881.97;5022103;27;102927;-58
2022/06/13 04:31:07;;;;;;;6.80;3.10;;;;;;;18.15;72.94;98891.53;5028721;27;103555;-58
2022/06/13 04:33:39;;;;;;;6.10;2.72;;;;;;;18.46;72.43;98895.47;5033180;27;103260;-59
2022/06/13 04:36:11;;;;;;;4.90;2.45;;;;;;;18.56;72.14;98894.53;5031340;27;103200;-68
2022/06/13 04:38:45;;;;;;;5.90;2.60;;;;;;;18.30;72.72;98889.97;5013393;27;103186;-68
2022/06/13 04:41:17;;;;;;;4.70;2.55;;;;;;;18.58;71.16;98900.59;5034932;27;102632;-68
2022/06/13 04:43:48;;;;;;;5.15;2.65;;;;;;;18.51;72.16;98897.69;5020161;27;104232;-68
2022/06/13 04:46:20;;;;;;;5.80;3.03;;;;;;;18.44;71.43;98901.97;5035417;27;103293;-68
2022/06/13 04:48:50;;;;;;;5.88;3.00;;;;;;;18.66;71.18;98906.84;5021818;27;102657;-68
2022/06/13 04:51:22;;;;;;;5.15;2.95;;;;;;;18.55;71.49;98901.75;5024664;27;105597;-68
2022/06/13 04:53:56;;;;;;;5.32;2.58;;;;;;;18.33;72.35;98907.56;5033264;27;103003;-68
2022/06/13 04:56:25;;;;;;;5.75;2.72;;;;;;;18.48;71.05;98914.06;5034178;27;103212;-68
2022/06/13 04:58:54;;;;;;;7.50;3.40;;;;;;;18.47;71.56;98917.69;5035769;27;103089;-68
2022/06/13 05:01:29;;;;;;;6.65;2.92;;;;;;;18.56;71.41;98924.81;5029961;27;102631;-68
2022/06/13 05:04:00;;;;;;;7.00;3.63;;;;;;;18.44;70.77;98928.72;5033373;27;104199;-68
2022/06/13 05:06:33;;;;;;;8.03;3.10;;;;;;;18.13;72.56;98933.63;5035387;27;103039;-68
2022/06/13 05:09:16;;;;;;;6.30;2.83;;;;;;;18.04;73.88;98937.22;5030175;27;102711;-68
2022/06/13 05:11:50;;;;;;;6.80;3.08;;;;;;;18.24;72.53;98937.91;5031622;27;102733;-68
2022/06/13 05:14:26;;;;;;;7.93;3.40;;;;;;;18.01;71.90;98944.69;5029831;27;104468;-58
2022/06/13 05:17:22;;;;;;;7.18;3.40;;;;;;;18.38;70.84;98950.75;5034967;27;103620;-58
2022/06/13 05:19:59;;;;;;;6.90;3.10;;;;;;;18.50;69.63;98957.53;5033941;27;102742;-58
2022/06/13 05:22:46;;;;;;;6.70;2.90;;;;;;;18.39;71.47;98960.41;5031308;27;103737;-58
2022/06/13 05:25:35;;;;;;;6.10;2.90;;;;;;;18.22;71.64;98962.09;5037157;27;103751;-57
2022/06/13 05:28:05;;;;;;;5.50;2.55;;;;;;;18.70;71.11;98960.88;5029550;27;103247;-58
2022/06/13 05:30:33;;;;;;;4.88;2.70;;;;;;;18.94;70.42;98969.09;5031605;27;102946;-60
2022/06/13 05:33:06;;;;;;;7.75;3.30;;;;;;;18.77;69.96;98965.47;5032428;27;102637;-57
2022/06/13 05:35:35;;;;;;;4.95;2.63;;;;;;;18.53;71.26;98971.47;5033679;27;103112;-58
2022/06/13 05:38:05;;;;;;;6.33;2.90;;;;;;;18.81;71.57;98971.31;5030242;27;103838;-58
2022/06/13 05:40:35;;;;;;;6.18;3.33;;;;;;;19.20;69.47;98969.09;5036645;27;102657;-57
2022/06/13 05:43:02;;;;;;;4.15;2.10;;;;;;;19.20;69.55;98972.59;5039420;27;104030;-58
2022/06/13 05:45:30;;;;;;;3.38;2.65;;;;;;;19.54;69.49;98978.00;5030603;27;103030;-58
2022/06/13 05:47:58;;;;;;;5.57;2.90;;;;;;;19.44;69.02;98977.28;5026477;27;103287;-58
2022/06/13 05:50:32;;;;;;;7.57;3.10;;;;;;;19.48;68.13;98978.66;5029619;27;102947;-58
2022/06/13 05:53:00;;;;;;;6.47;2.90;;;;;;;19.52;67.52;98985.38;5032175;27;102807;-58
2022/06/13 05:55:29;;;;;;;4.82;2.72;;;;;;;19.47;67.16;98988.53;5024138;27;103026;-58
2022/06/13 05:58:02;;;;;;;4.73;2.80;;;;;;;19.62;69.39;98986.09;5015112;27;104142;-58
2022/06/13 06:00:37;;;;;;;7.57;3.10;;;;;;;19.61;67.17;98989.75;5029855;27;102796;-58
2022/06/13 06:03:05;;;;;;;8.15;3.15;;;;;;;18.68;69.20;98995.84;5030810;27;103237;-58
2022/06/13 06:05:33;;;;;;;6.35;2.95;;;;;;;18.96;68.13;99000.06;5032155;27;103405;-58
2022/06/13 06:08:01;;;;;;;7.78;3.28;;;;;;;19.21;67.94;99000.22;5031424;27;103208;-58
2022/06/13 06:10:32;;;;;;;5.03;2.83;;;;;;;19.24;67.38;99003.44;5032885;27;102738;-58
2022/06/13 06:13:02;;;;;;;5.32;3.15;;;;;;;19.18;67.92;99016.59;5027810;27;102880;-58
2022/06/13 06:15:30;;;;;;;5.78;2.85;;;;;;;19.44;68.08;99004.09;5029615;27;104196;-58
2022/06/13 06:17:57;;;;;;;5.80;2.78;;;;;;;19.33;68.13;99007.00;5026204;27;103188;-58
2022/06/13 06:20:25;;;;;;;6.20;2.67;;;;;;;19.54;65.63;99007.47;5029440;27;102919;-58
2022/06/13 06:22:53;;;;;;;3.75;2.63;;;;;;;19.26;66.82;99012.13;5031866;27;102816;-58
2022/06/13 06:25:21;;;;;;;4.75;2.83;;;;;;;18.67;65.92;99018.22;5029965;27;104232;-58
2022/06/13 06:27:49;;;;;;;5.18;2.70;;;;;;;18.69;66.83;99018.94;5030742;27;104324;-58
2022/06/13 06:30:19;;;;;;;5.10;2.90;;;;;;;19.00;64.78;99011.31;5028938;27;102983;-57
2022/06/13 06:32:54;;;;;;;5.90;2.67;;;;;;;19.28;66.41;99017.34;5027904;27;103107;-58
2022/06/13 06:35:22;;;;;;;6.63;2.80;;;;;;;18.94;66.22;99023.50;5030021;27;103870;-58
2022/06/13 06:37:52;;;;;;;7.50;2.85;;;;;;;18.80;65.16;99020.53;5027259;27;103201;-68
2022/06/13 06:40:23;;;;;;;6.72;2.88;;;;;;;19.26;64.22;99022.00;5028859;27;103060;-68
2022/06/13 06:42:52;;;;;;;6.60;2.92;;;;;;;18.43;66.73;99020.66;5029235;27;102829;-68
2022/06/13 06:45:25;;;;;;;7.18;2.50;;;;;;;19.13;65.03;99029.63;5020332;27;103268;-68
2022/06/13 06:47:54;;;;;;;7.88;2.70;;;;;;;19.15;64.34;99019.59;5024427;27;104206;-67
2022/06/13 06:50:25;;;;;;;4.65;2.50;;;;;;;19.28;64.87;99025.41;5021200;27;103010;-68
2022/06/13 06:52:53;;;;;;;6.75;2.70;;;;;;;19.36;63.11;99028.13;5031316;27;104312;-58
2022/06/13 07:01:14;;;;;;;6.47;3.15;;;;;;;19.60;64.51;99041.69;4986281;28;104769;-68
2022/06/13 07:03:44;;;;;;;6.55;2.40;;;;;;;20.02;62.29;99039.00;4969792;28;102883;-67
2022/06/13 07:06:13;;;;;;;5.45;2.58;;;;;;;20.04;62.37;99045.88;5002602;27;104204;-67
2022/06/13 07:08:43;;;;;;;7.20;2.97;;;;;;;19.27;62.18;99050.50;5029735;27;103115;-69
2022/06/13 07:14:07;;;;;;;5.13;3.13;;;;;;;18.99;66.00;99053.31;5031214;27;102714;-67
2022/06/13 07:16:36;;;;;;;6.30;2.90;;;;;;;20.10;62.65;99045.25;5030853;27;103395;-67
2022/06/13 07:19:04;;;;;;;7.03;3.00;;;;;;;20.09;62.43;99043.59;5030534;27;103193;-69
2022/06/13 07:21:32;;;;;;;7.72;3.17;;;;;;;19.97;62.94;99052.91;5030024;27;102712;-69
2022/06/13 07:24:03;;;;;;;5.10;2.70;;;;;;;19.79;63.60;99049.47;5030572;27;104071;-68
2022/06/13 07:26:31;;;;;;;6.70;3.08;;;;;;;20.03;62.53;99043.38;5031375;27;103291;-68
2022/06/13 07:29:02;;;;;;;4.97;2.63;;;;;;;20.44;60.83;99044.34;5031254;27;103181;-68
2022/06/13 07:31:35;;;;;;;7.13;2.90;;;;;;;20.22;59.01;99043.94;5030367;27;103093;-68
2022/06/13 07:34:04;;;;;;;4.88;2.65;;;;;;;20.96;59.57;99047.59;5032089;27;102689;-68
2022/06/13 07:36:32;;;;;;;8.30;3.05;;;;;;;21.27;59.50;99059.38;5033426;27;103243;-68
2022/06/13 07:39:00;;;;;;;5.47;2.88;;;;;;;21.13;58.01;99055.53;5030021;27;103180;-68
2022/06/13 07:41:28;;;;;;;5.88;3.00;;;;;;;20.71;59.31;99063.72;5024617;27;102689;-69
2022/06/13 07:43:58;;;;;;;3.85;2.30;;;;;;;21.95;57.57;99059.75;5030690;27;102811;-68
2022/06/13 07:46:31;;;;;;;5.20;2.60;;;;;;;22.22;55.59;99058.44;5031719;27;103250;-68
2022/06/13 07:49:00;;;;;;;6.85;2.92;;;;;;;21.57;55.88;99060.50;5029782;27;103319;-68
2022/06/13 07:51:30;;;;;;;5.38;2.63;;;;;;;22.47;56.21;99062.66;5028157;27;102821;-68
2022/06/13 07:54:04;;;;;;;6.28;3.00;;;;;;;21.62;54.39;99060.81;5030653;27;103400;-68
2022/06/13 07:56:33;;;;;;;5.05;2.30;;;;;;;22.72;54.55;99066.06;5030887;27;103376;-68
2022/06/13 07:59:04;;;;;;;7.93;2.90;;;;;;;22.01;55.52;99063.59;5036328;27;103186;-68
2022/06/13 08:01:32;;;;;;;5.90;2.60;;;;;;;21.64;57.78;99061.50;5027529;27;102580;-68
2022/06/13 08:04:00;;;;;;;7.88;3.05;;;;;;;22.42;55.68;99063.22;5029315;27;102841;-69
2022/06/13 08:06:29;;;;;;;10.23;4.28;;;;;;;21.95;56.08;99071.31;5030604;27;103357;-69
2022/06/13 08:08:57;;;;;;;5.90;3.10;;;;;;;21.18;58.06;99076.50;5046206;27;104228;-69
2022/06/13 08:11:30;;;;;;;5.55;2.80;;;;;;;21.76;57.39;99073.53;5028303;27;102768;-69
2022/06/13 08:13:59;;;;;;;5.30;2.80;;;;;;;23.23;52.87;99069.88;5024603;27;103219;-68
2022/06/13 08:16:27;;;;;;;5.90;2.80;;;;;;;22.19;54.16;99069.56;5026162;27;103248;-68
2022/06/13 08:18:55;;;;;;;6.88;2.70;;;;;;;22.92;53.62;99075.34;5029875;27;104640;-69
2022/06/13 08:21:23;;;;;;;11.30;4.32;;;;;;;22.68;53.69;99075.53;5031735;27;102785;-60
2022/06/13 08:23:52;;;;;;;7.47;3.80;;;;;;;23.02;53.33;99076.78;5031269;27;102763;-69
2022/06/13 08:26:20;;;;;;;5.65;2.72;;;;;;;23.20;53.05;99076.47;5030449;27;103330;-60
2022/06/13 08:28:48;;;;;;;5.35;2.90;;;;;;;22.88;52.57;99084.78;5029237;27;103282;-63
2022/06/13 08:31:21;;;;;;;5.97;2.70;;;;;;;22.52;53.91;99077.28;5029819;27;103500;-60
2022/06/13 08:33:49;;;;;;;5.60;2.83;;;;;;;22.39;53.65;99087.78;5025472;27;104212;-61
2022/06/13 08:36:17;;;;;;;7.75;3.40;;;;;;;21.99;53.40;99079.88;5032396;27;103380;-60
2022/06/13 08:38:45;;;;;;;7.03;3.13;;;;;;;22.00;54.50;99086.97;5029202;27;103247;-62
2022/06/13 08:41:23;;;;;;;6.27;2.67;;;;;;;23.21;53.34;99088.09;5029738;27;103446;-59
2022/06/13 08:44:23;;;;;;;5.75;2.97;;;;;;;23.47;50.88;99084.00;5029924;27;104326;-60
2022/06/13 08:47:02;;;;;;;6.70;2.80;;;;;;;24.15;49.97;99080.22;5003987;27;104951;-59
2022/06/13 08:49:39;;;;;;;6.43;2.75;;;;;;;25.53;47.45;99077.16;5043956;27;104304;-60
2022/06/13 08:52:25;;;;;;;7.90;2.93;;;;;;;24.20;48.20;99091.28;5030212;27;102939;-60
2022/06/13 08:55:01;;;;;;;6.35;2.85;;;;;;;24.73;46.18;99092.75;5029594;27;103038;-60
2022/06/13 08:57:34;;;;;;;4.40;1.95;;;;;;;25.87;46.69;99087.16;5030122;27;103252;-60
2022/06/13 09:00:08;;;;;;;5.77;2.80;;;;;;;24.62;47.73;99094.09;5026321;27;103379;-60
2022/06/13 09:02:43;;;;;;;6.03;2.70;;;;;;;25.09;45.39;99099.00;5024351;27;103204;-60
2022/06/13 09:05:15;;;;;;;7.20;2.72;;;;;;;24.11;46.87;99111.34;5029597;27;103510;-60
2022/06/13 09:07:51;;;;;;;5.97;2.47;;;;;;;25.27;46.73;99103.94;5023385;27;103262;-61
2022/06/13 09:10:26;;;;;;;5.00;2.57;;;;;;;26.26;44.53;99097.38;5023759;27;103135;-60
2022/06/13 09:12:59;;;;;;;6.88;2.65;;;;;;;27.18;45.29;99095.81;5029558;27;103084;-60
2022/06/13 09:15:33;;;;;;;6.00;2.55;;;;;;;24.88;42.92;99111.66;5028399;27;103570;-60
2022/06/13 09:18:06;;;;;;;5.75;2.38;;;;;;;25.77;44.49;99109.16;5036455;27;104018;-60
2022/06/13 09:20:41;;;;;;;5.68;2.60;;;;;;;25.36;44.64;99100.06;5028056;27;104151;-60
2022/06/13 09:23:18;;;;;;;6.35;2.65;;;;;;;26.59;42.29;99106.50;5030114;27;102797;-60
2022/06/13 09:25:52;;;;;;;5.88;2.95;;;;;;;26.33;42.02;99111.81;5026573;27;103144;-61
2022/06/13 09:28:28;;;;;;;6.00;2.50;;;;;;;26.46;42.46;99109.16;5024597;27;103383;-60
2022/06/13 09:31:07;;;;;;;6.17;2.87;;;;;;;26.63;42.12;99099.63;5025859;27;103536;-61
2022/06/13 09:33:39;;;;;;;5.68;2.33;;;;;;;27.08;42.07;99105.41;5022618;27;103034;-60
2022/06/13 09:36:17;;;;;;;4.13;2.50;;;;;;;27.94;41.10;99102.47;5029645;27;103744;-60
2022/06/13 09:38:48;;;;;;;7.15;2.97;;;;;;;27.68;40.26;99109.84;5028737;27;103613;-60
2022/06/13 09:41:32;;;;;;;5.57;2.72;;;;;;;27.60;39.59;99110.88;5027430;27;102995;-60
2022/06/13 09:44:16;;;;;;;6.05;2.65;;;;;;;27.11;39.78;99103.13;5029196;27;102946;-60
2022/06/13 09:46:54;;;;;;;8.63;2.65;;;;;;;25.62;42.67;99100.31;5026054;27;103038;-61
2022/06/13 09:49:36;;;;;;;5.43;2.50;;;;;;;26.56;41.60;99103.34;5027106;27;104169;-64
2022/06/13 09:52:15;;;;;;;5.28;2.90;;;;;;;27.30;38.32;99096.88;5025644;27;104149;-65
2022/06/13 09:54:51;;;;;;;6.50;2.35;;;;;;;27.39;38.38;99105.63;5024244;27;103012;-65
2022/06/13 09:57:30;;;;;;;4.47;1.83;;;;;;;26.57;41.09;99105.03;5028965;27;103756;-65
2022/06/13 10:00:12;;;;;;;6.23;2.53;;;;;;;27.71;40.12;99102.09;5031431;27;103204;-65
2022/06/13 10:02:55;;;;;;;4.97;2.25;;;;;;;26.96;39.34;99103.28;5030041;27;103172;-65
2022/06/13 10:05:35;;;;;;;6.47;2.20;;;;;;;27.92;39.50;99110.00;5026701;27;102859;-64
2022/06/13 10:08:36;;;;;;;3.10;1.92;;;;;;;27.85;38.56;99098.31;5034237;27;103984;-65
2022/06/13 10:11:26;;;;;;;5.00;2.65;;;;;;;26.30;39.95;99101.38;5016509;27;104341;-64
2022/06/13 10:14:16;;;;;;;5.33;2.27;;;;;;;26.51;39.94;99098.53;5021923;27;104103;-64
2022/06/13 10:16:55;;;;;;;4.03;1.83;;;;;;;27.68;37.47;99094.38;5023502;27;103271;-64
2022/06/13 10:19:33;;;;;;;4.15;2.35;;;;;;;26.81;38.47;99096.34;5024651;27;102943;-65
2022/06/13 10:22:09;;;;;;;4.63;2.35;;;;;;;27.02;38.74;99105.19;5017527;27;103173;-65
2022/06/13 10:24:46;;;;;;;5.85;2.42;;;;;;;27.68;38.35;99099.78;5022244;27;103221;-65
2022/06/13 10:27:35;;;;;;;3.20;1.90;;;;;;;28.50;36.99;99088.31;5024667;27;103027;-65
2022/06/13 10:30:34;;;;;;;4.73;2.00;;;;;;;26.96;37.70;99108.72;5015522;27;102974;-65
2022/06/13 10:33:27;;;;;;;5.68;2.30;;;;;;;27.79;37.08;99107.28;5029454;27;103308;-64
2022/06/13 10:36:10;;;;;;;5.63;1.85;;;;;;;28.59;36.21;99087.88;5022582;27;104104;-64
2022/06/13 10:38:55;;;;;;;4.90;2.33;;;;;;;27.94;36.55;99104.34;5020357;27;103043;-64
2022/06/13 10:41:25;;;;;;;6.80;2.38;;;;;;;26.39;39.38;99108.28;5019385;27;103921;-64
2022/06/13 10:43:56;;;;;;;5.90;2.40;;;;;;;26.21;40.14;99108.00;5032133;27;103405;-65
2022/06/13 10:46:25;;;;;;;4.32;2.25;;;;;;;26.97;39.48;99107.69;5026962;27;104276;-65
2022/06/13 10:48:59;;;;;;;5.30;1.90;;;;;;;27.74;37.74;99104.38;5023554;27;102926;-65
2022/06/13 10:51:27;;;;;;;4.65;2.10;;;;;;;27.39;36.65;99100.22;5030445;27;103660;-65
2022/06/13 10:54:04;;;;;;;3.70;1.83;;;;;;;28.09;36.05;99092.25;5026311;27;104171;-65
2022/06/13 10:56:37;;;;;;;3.95;2.30;;;;;;;26.71;40.67;99088.59;5038530;27;103090;-65
2022/06/13 10:59:06;;;;;;;3.95;1.95;;;;;;;25.45;39.44;99103.47;5028551;27;102809;-64
2022/06/13 11:01:34;;;;;;;2.28;1.70;;;;;;;27.62;38.98;99090.63;5031384;27;102850;-65
2022/06/13 11:04:08;;;;;;;5.20;2.05;;;;;;;26.89;38.68;99096.19;5038731;27;104009;-65
2022/06/13 11:06:42;;;;;;;3.42;1.90;;;;;;;26.84;37.54;99096.78;5034467;27;103595;-64
2022/06/13 11:09:23;;;;;;;3.20;1.98;;;;;;;25.21;38.09;99102.84;5025539;27;102874;-65
2022/06/13 11:11:57;;;;;;;5.93;2.10;;;;;;;24.98;40.10;99107.63;5029879;27;102729;-64
2022/06/13 11:14:34;;;;;;;4.20;2.07;;;;;;;25.90;39.70;99101.13;5020483;27;104126;-65
2022/06/13 11:22:59;;;;;;;5.07;2.25;;;;;;;25.03;40.02;99098.94;5042608;27;104176;-64
2022/06/13 11:25:30;;;;;;;4.43;2.10;;;;;;;24.41;41.42;99095.94;5034023;27;103743;-65
2022/06/13 11:28:05;;;;;;;7.88;2.42;;;;;;;25.75;40.17;99088.75;5038661;27;103280;-64
2022/06/13 11:30:40;;;;;;;6.85;1.75;;;;;;;26.15;40.99;99089.84;5030809;27;102693;-65
2022/06/13 11:33:19;;;;;;;5.18;2.47;;;;;;;24.64;39.93;99097.47;5030710;27;102727;-64
2022/06/13 11:35:51;;;;;;;4.28;2.20;;;;;;;24.21;41.05;99092.97;5041908;27;104508;-64
2022/06/13 11:38:23;;;;;;;3.65;2.20;;;;;;;24.35;41.13;99100.22;5027242;27;103241;-64
2022/06/13 11:41:04;;;;;;;4.13;2.00;;;;;;;25.30;39.62;99087.31;5033824;27;102873;-64
2022/06/13 11:43:37;;;;;;;3.83;2.10;;;;;;;24.02;41.60;99105.16;5033266;27;103777;-63
2022/06/13 11:46:07;;;;;;;5.10;2.17;;;;;;;24.79;40.28;99092.88;5032033;27;103369;-63
2022/06/13 11:48:37;;;;;;;5.53;2.38;;;;;;;26.35;39.59;99090.78;5013924;27;103171;-64
2022/06/13 11:51:19;;;;;;;5.03;2.00;;;;;;;25.30;40.33;99087.31;5026672;27;102874;-65
2022/06/13 11:53:47;;;;;;;4.53;2.22;;;;;;;23.38;42.68;99103.13;5023763;27;104459;-64
2022/06/13 11:56:23;;;;;;;6.77;2.50;;;;;;;23.83;42.64;99103.00;5023414;27;103333;-67
2022/06/13 11:58:55;;;;;;;3.58;2.00;;;;;;;25.27;40.90;99095.81;5024248;27;104563;-65
2022/06/13 12:01:30;;;;;;;3.35;2.28;;;;;;;24.48;41.08;99094.13;5019143;27;103098;-65
2022/06/13 12:04:02;;;;;;;4.53;2.08;;;;;;;23.81;43.86;99098.81;5031466;27;104209;-65
2022/06/13 12:06:40;;;;;;;6.10;2.30;;;;;;;23.79;42.86;99103.56;5006354;27;103912;-65
2022/06/13 12:09:16;;;;;;;5.93;2.30;;;;;;;23.47;43.51;99093.94;5029164;27;104299;-65
2022/06/13 12:11:47;;;;;;;5.20;2.30;;;;;;;23.53;43.39;99104.84;5046000;27;103163;-65
2022/06/13 12:14:15;;;;;;;5.65;2.40;;;;;;;22.74;44.47;99113.34;5025252;27;102727;-65